Orbital elements of COSMOS 970 DEB
| Launched | 20 December 1977 |
| Flight ended | – |
| Launch site | Tyuratam Missile and Space Center, Kazakhstan (Also known as Baikonur Cosmodrome) |
| Owner | Commonwealth of Independent States (former USSR) |
| NORAD ID | 10885 |
| Date fetched |
Epoch osculation |
Inc. [°] |
Ecc. | RA asc node [hr] |
Arg Peri. [°] |
Mean anom [°] |
Mean motion [rev/day] |
Abs. mag |
| Date fetched |
Epoch osculation |
Inc. [°] |
Ecc. | RA asc node [hr] |
Arg Peri. [°] |
Mean anom [°] |
Mean motion [rev/day] |
Abs. mag |
| 2026 May 03 17:57 | 2026 Apr 30 14:48:41 | 65.7905 | 0.00554 | 11.8961 | 47.5845 | 115.7135 | 13.70336 | – |
| 2026 May 02 17:57 | 2026 Apr 30 14:48:41 | 65.7905 | 0.00554 | 11.8961 | 47.5845 | 115.7135 | 13.70336 | – |
| 2026 May 01 17:56 | 2026 Apr 30 14:48:41 | 65.7905 | 0.00554 | 11.8961 | 47.5845 | 115.7135 | 13.70336 | – |
| 2026 Apr 30 17:56 | 2026 Apr 30 14:48:41 | 65.7905 | 0.00554 | 11.8961 | 47.5845 | 115.7135 | 13.70336 | – |
| 2026 Apr 29 17:57 | 2026 Apr 24 05:47:34 | 65.7907 | 0.00553 | 12.9396 | 51.4311 | 115.7135 | 13.70336 | – |
| 2026 Apr 28 17:56 | 2026 Apr 24 05:47:34 | 65.7907 | 0.00553 | 12.9396 | 51.4311 | 115.7135 | 13.70336 | – |
| 2026 Apr 27 17:58 | 2026 Apr 24 05:47:34 | 65.7907 | 0.00553 | 12.9396 | 51.4311 | 115.7135 | 13.70336 | – |
| 2026 Apr 26 17:58 | 2026 Apr 24 05:47:34 | 65.7907 | 0.00553 | 12.9396 | 51.4311 | 115.7135 | 13.70336 | – |
| 2026 Apr 25 17:58 | 2026 Apr 24 05:47:34 | 65.7907 | 0.00553 | 12.9396 | 51.4311 | 115.7135 | 13.70336 | – |
| 2026 Apr 24 17:59 | 2026 Apr 24 05:47:34 | 65.7907 | 0.00553 | 12.9396 | 51.4311 | 115.7135 | 13.70336 | – |
| 2026 Apr 23 17:57 | 2026 Apr 19 06:40:51 | 65.7910 | 0.00553 | 13.7519 | 54.3014 | 115.7135 | 13.70336 | – |
| 2026 Apr 22 17:57 | 2026 Apr 19 06:40:51 | 65.7910 | 0.00553 | 13.7519 | 54.3014 | 115.7135 | 13.70336 | – |
| 2026 Apr 21 17:57 | 2026 Apr 19 06:40:51 | 65.7910 | 0.00553 | 13.7519 | 54.3014 | 115.7135 | 13.70336 | – |
| 2026 Apr 20 17:57 | 2026 Apr 19 06:40:51 | 65.7910 | 0.00553 | 13.7519 | 54.3014 | 115.7135 | 13.70336 | – |
| 2026 Apr 19 17:58 | 2026 Apr 19 06:40:51 | 65.7910 | 0.00553 | 13.7519 | 54.3014 | 115.7135 | 13.70336 | – |
| 2026 Apr 18 17:56 | 2026 Apr 12 17:27:07 | 65.7912 | 0.00555 | 14.8240 | 58.1321 | 115.7135 | 13.70336 | – |
| 2026 Apr 16 17:57 | 2026 Apr 12 17:27:07 | 65.7912 | 0.00555 | 14.8240 | 58.1321 | 115.7135 | 13.70336 | – |
| 2026 Apr 14 17:57 | 2026 Apr 12 17:27:07 | 65.7912 | 0.00555 | 14.8240 | 58.1321 | 115.7135 | 13.70336 | – |
| 2026 Apr 13 17:57 | 2026 Apr 12 17:27:07 | 65.7912 | 0.00555 | 14.8240 | 58.1321 | 115.7135 | 13.70336 | – |
| 2026 Apr 12 17:57 | 2026 Apr 07 12:53:42 | 65.7909 | 0.00556 | 15.6734 | 61.1150 | 115.7135 | 13.70336 | – |
| 2026 Apr 11 17:57 | 2026 Apr 07 12:53:42 | 65.7909 | 0.00556 | 15.6734 | 61.1150 | 115.7135 | 13.70336 | – |
| 2026 Apr 10 17:58 | 2026 Apr 07 12:53:42 | 65.7909 | 0.00556 | 15.6734 | 61.1150 | 115.7135 | 13.70336 | – |
| 2026 Apr 09 18:01 | 2026 Apr 07 12:53:42 | 65.7909 | 0.00556 | 15.6734 | 61.1150 | 115.7135 | 13.70336 | – |
| 2026 Apr 08 17:57 | 2026 Apr 07 12:53:42 | 65.7909 | 0.00556 | 15.6734 | 61.1150 | 115.7135 | 13.70336 | – |
| 2026 Apr 07 17:57 | 2026 Apr 01 09:29:37 | 65.7904 | 0.00558 | 16.6786 | 64.5332 | 115.7135 | 13.70336 | – |
| 2026 Apr 06 17:57 | 2026 Apr 01 09:29:37 | 65.7904 | 0.00558 | 16.6786 | 64.5332 | 115.7135 | 13.70336 | – |